Time;durP1;ratioP1;P1;durP2;ratioP2;P2;SDS_P1;SDS_P2;PMS_P1;PMS_P2;Temp;Humidity;BMP_temperature;BMP_pressure;BME280_temperature;BME280_humidity;BME280_pressure;Samples;Min_cycle;Max_cycle;Signal;HPM_P1;HPM_P2
2021/06/18 00:02:15;;;;;;;12.07;6.75;;;21.40;99.90;;;;;;5026990;28;20041;-71
2021/06/18 00:04:41;;;;;;;13.45;6.57;;;21.30;99.90;;;;;;5026892;28;20087;-71
2021/06/18 00:07:06;;;;;;;13.77;6.70;;;21.30;99.90;;;;;;5027963;28;20409;-71
2021/06/18 00:09:32;;;;;;;12.10;7.20;;;21.20;99.90;;;;;;5027656;28;20052;-71
2021/06/18 00:11:57;;;;;;;13.00;6.75;;;21.20;99.90;;;;;;5027602;28;20037;-72
2021/06/18 00:14:23;;;;;;;15.35;7.57;;;21.20;99.90;;;;;;5027948;28;20026;-72
2021/06/18 00:16:49;;;;;;;11.55;6.38;;;21.20;99.90;;;;;;5027004;28;20152;-71
2021/06/18 00:19:14;;;;;;;13.32;7.03;;;21.20;99.90;;;;;;5027624;28;20033;-72
2021/06/18 00:21:40;;;;;;;11.00;6.70;;;21.20;99.90;;;;;;5009170;28;20025;-71
2021/06/18 00:24:07;;;;;;;17.75;7.25;;;21.20;99.90;;;;;;5027832;28;20037;-72
2021/06/18 00:26:32;;;;;;;14.07;7.38;;;21.20;99.90;;;;;;5027389;28;20125;-72
2021/06/18 00:28:58;;;;;;;12.70;6.88;;;21.20;99.90;;;;;;5027358;28;20044;-71
2021/06/18 00:31:23;;;;;;;13.25;6.35;;;21.30;99.90;;;;;;5042924;28;20084;-71
2021/06/18 00:33:50;;;;;;;12.20;7.22;;;21.20;99.90;;;;;;5027254;28;20383;-72
2021/06/18 00:36:15;;;;;;;13.90;7.00;;;21.20;99.90;;;;;;5028156;28;20052;-72
2021/06/18 00:38:41;;;;;;;16.70;7.28;;;21.20;99.90;;;;;;5027053;28;20041;-72
2021/06/18 00:41:06;;;;;;;12.25;7.57;;;21.20;99.90;;;;;;5009296;28;20124;-72
2021/06/18 00:43:32;;;;;;;13.18;7.60;;;21.20;99.90;;;;;;5026962;28;20067;-71
2021/06/18 00:45:58;;;;;;;16.02;7.93;;;21.10;99.90;;;;;;5027471;28;20044;-71
2021/06/18 00:48:25;;;;;;;12.48;7.55;;;21.10;99.90;;;;;;5027553;28;20092;-72
2021/06/18 00:50:51;;;;;;;15.93;7.45;;;21.10;99.90;;;;;;5022490;28;20640;-73
2021/06/18 00:53:17;;;;;;;13.90;8.15;;;21.00;99.90;;;;;;5027342;28;20109;-72
2021/06/18 00:55:46;;;;;;;12.88;7.30;;;21.10;99.90;;;;;;5026608;28;20032;-72
2021/06/18 00:58:12;;;;;;;10.50;6.78;;;21.10;99.90;;;;;;5026860;28;20114;-71
2021/06/18 01:00:37;;;;;;;15.88;7.22;;;21.10;99.90;;;;;;5041740;28;20486;-72
2021/06/18 01:03:03;;;;;;;12.32;6.95;;;21.10;99.90;;;;;;5026141;28;20033;-72
2021/06/18 01:05:28;;;;;;;14.30;7.45;;;21.00;99.90;;;;;;5026085;28;20033;-71
2021/06/18 01:08:26;;;;;;;14.25;7.25;;;21.00;99.90;;;;;;5026286;28;20087;-71
2021/06/18 01:11:06;;;;;;;12.52;7.90;;;21.00;99.90;;;;;;5022302;28;20042;-72
2021/06/18 01:13:37;;;;;;;16.10;8.13;;;21.10;99.90;;;;;;5024224;28;20574;-71
2021/06/18 01:16:26;;;;;;;15.52;8.38;;;21.10;99.90;;;;;;5026507;28;20056;-72
2021/06/18 01:19:20;;;;;;;13.98;8.10;;;21.10;99.90;;;;;;5021176;28;20061;-73
2021/06/18 01:21:54;;;;;;;11.90;7.65;;;21.10;99.90;;;;;;5025503;28;20030;-72
2021/06/18 01:25:00;;;;;;;12.73;7.55;;;21.10;99.90;;;;;;5022895;28;20094;-73
2021/06/18 01:27:40;;;;;;;14.98;7.93;;;21.10;99.90;;;;;;4920614;29;20583;-72
2021/06/18 01:30:08;;;;;;;13.80;8.43;;;21.10;99.90;;;;;;5001268;28;20029;-73
2021/06/18 01:32:57;;;;;;;13.18;7.93;;;21.10;99.90;;;;;;5023421;28;20037;-71
2021/06/18 01:35:25;;;;;;;17.90;9.60;;;21.10;99.90;;;;;;5008482;28;20114;-71
2021/06/18 01:37:54;;;;;;;14.88;8.70;;;21.00;99.90;;;;;;5028379;28;20039;-72
2021/06/18 01:40:22;;;;;;;15.48;8.45;;;21.00;99.90;;;;;;5023230;28;20045;-71
2021/06/18 01:42:49;;;;;;;13.00;7.72;;;21.00;99.90;;;;;;5023603;28;20124;-71
2021/06/18 01:45:17;;;;;;;16.67;8.60;;;21.00;99.90;;;;;;5008060;28;20033;-72
2021/06/18 01:47:45;;;;;;;21.00;8.80;;;21.00;99.90;;;;;;5026131;28;20121;-72
2021/06/18 01:50:20;;;;;;;17.85;8.88;;;21.10;99.90;;;;;;5025636;28;20414;-73
2021/06/18 01:52:52;;;;;;;14.68;8.55;;;21.20;99.90;;;;;;5025803;28;20041;-72
2021/06/18 01:55:25;;;;;;;19.95;9.02;;;21.10;99.90;;;;;;5021919;28;20041;-71
2021/06/18 01:57:57;;;;;;;16.63;9.27;;;21.10;99.90;;;;;;5022921;28;20092;-71
2021/06/18 02:00:23;;;;;;;16.15;8.73;;;21.10;99.90;;;;;;5004526;28;20068;-71
2021/06/18 02:02:50;;;;;;;15.77;8.75;;;21.00;99.90;;;;;;5025891;28;20034;-72
2021/06/18 02:05:17;;;;;;;15.05;8.82;;;21.10;99.90;;;;;;5020196;28;20042;-71
2021/06/18 02:07:44;;;;;;;13.63;8.70;;;21.00;99.90;;;;;;5025610;28;20033;-71
2021/06/18 02:10:11;;;;;;;16.70;8.95;;;21.00;99.90;;;;;;5026009;28;20030;-72
2021/06/18 02:12:37;;;;;;;15.75;8.57;;;21.10;99.90;;;;;;5025508;28;20568;-72
2021/06/18 02:15:08;;;;;;;16.55;9.27;;;21.00;99.90;;;;;;5026231;28;20091;-72
2021/06/18 02:17:38;;;;;;;15.70;8.50;;;21.00;99.90;;;;;;5007626;28;20477;-72
2021/06/18 02:20:06;;;;;;;15.18;9.25;;;21.00;99.90;;;;;;5025812;28;20033;-71
2021/06/18 02:22:34;;;;;;;17.55;8.88;;;21.00;99.90;;;;;;5025024;28;20045;-71
2021/06/18 02:25:02;;;;;;;16.08;8.98;;;21.00;99.90;;;;;;5026091;28;20041;-71
2021/06/18 02:27:28;;;;;;;14.98;9.05;;;20.90;99.90;;;;;;5007745;28;20044;-70
2021/06/18 02:29:54;;;;;;;14.52;8.60;;;20.90;99.90;;;;;;5025575;28;20141;-72
2021/06/18 02:32:20;;;;;;;14.88;8.18;;;20.90;99.90;;;;;;5024735;28;20117;-71
2021/06/18 02:34:46;;;;;;;16.17;9.07;;;21.00;99.90;;;;;;5025984;28;20532;-72
2021/06/18 02:37:12;;;;;;;15.65;8.30;;;21.00;99.90;;;;;;5025735;28;20045;-72
2021/06/18 02:39:38;;;;;;;13.70;8.40;;;21.00;99.90;;;;;;5025183;28;20767;-72
2021/06/18 02:42:04;;;;;;;14.85;8.73;;;20.90;99.90;;;;;;5025297;28;20474;-72
2021/06/18 02:44:30;;;;;;;16.00;8.18;;;20.90;99.90;;;;;;5007422;28;20037;-71
2021/06/18 02:47:08;;;;;;;17.13;8.05;;;20.90;99.90;;;;;;5025460;28;20036;-72
2021/06/18 02:49:53;;;;;;;17.50;8.75;;;20.90;99.90;;;;;;5025021;28;20520;-71
2021/06/18 02:52:43;;;;;;;13.77;7.72;;;20.90;99.90;;;;;;5018149;28;20025;-71
2021/06/18 02:55:16;;;;;;;19.88;8.88;;;20.90;99.90;;;;;;5007808;28;20033;-71
2021/06/18 02:57:58;;;;;;;18.13;8.73;;;20.90;99.90;;;;;;5025497;28;20033;-72
2021/06/18 03:00:26;;;;;;;16.80;8.40;;;20.90;99.90;;;;;;5022522;28;20490;-72
2021/06/18 03:02:57;;;;;;;31.55;9.30;;;21.00;99.90;;;;;;5025105;28;20906;-70
2021/06/18 03:05:24;;;;;;;17.50;9.40;;;21.00;99.90;;;;;;5025107;28;20033;-72
2021/06/18 03:08:00;;;;;;;16.20;9.38;;;21.00;99.90;;;;;;5025447;28;20029;-72
2021/06/18 03:10:28;;;;;;;19.42;9.52;;;21.00;99.90;;;;;;5024914;28;20029;-71
2021/06/18 03:13:03;;;;;;;15.15;9.43;;;21.00;99.90;;;;;;5024992;28;20036;-72
2021/06/18 03:15:34;;;;;;;16.38;9.20;;;21.00;99.90;;;;;;5008045;28;20049;-72
2021/06/18 03:18:01;;;;;;;14.88;8.68;;;20.90;99.90;;;;;;5025427;28;20037;-71
2021/06/18 03:20:27;;;;;;;15.48;9.10;;;20.90;99.90;;;;;;5027027;28;20045;-71
2021/06/18 03:22:57;;;;;;;19.98;9.43;;;20.80;99.90;;;;;;5028778;28;20049;-70
2021/06/18 03:25:25;;;;;;;16.50;9.85;;;20.80;99.90;;;;;;5028484;28;20041;-70
2021/06/18 03:27:53;;;;;;;13.55;7.82;;;20.80;99.90;;;;;;5011226;28;20045;-72
2021/06/18 03:30:19;;;;;;;14.10;8.13;;;20.80;99.90;;;;;;5028085;28;20041;-73
2021/06/18 03:32:46;;;;;;;15.65;9.05;;;20.70;99.90;;;;;;5028740;28;20036;-71
2021/06/18 03:35:14;;;;;;;19.85;9.32;;;20.70;99.90;;;;;;5024375;28;20087;-72
2021/06/18 03:37:40;;;;;;;14.32;9.43;;;20.70;99.90;;;;;;5028800;28;20034;-70
2021/06/18 03:40:06;;;;;;;16.33;8.75;;;20.80;99.90;;;;;;5028536;28;20037;-72
2021/06/18 03:42:32;;;;;;;16.63;8.82;;;20.70;99.90;;;;;;5027324;28;20044;-71
2021/06/18 03:45:01;;;;;;;15.15;9.20;;;20.70;99.90;;;;;;5010663;28;20045;-72
2021/06/18 03:47:27;;;;;;;16.27;9.27;;;20.70;99.90;;;;;;5028033;28;20382;-72
2021/06/18 03:49:53;;;;;;;20.27;9.48;;;20.70;99.90;;;;;;5028519;28;20033;-72
2021/06/18 03:52:19;;;;;;;18.98;10.15;;;20.70;99.90;;;;;;5027217;28;20026;-72
2021/06/18 03:54:45;;;;;;;23.98;11.25;;;20.70;99.90;;;;;;5028525;28;20033;-71
2021/06/18 03:57:15;;;;;;;21.13;12.05;;;20.70;99.90;;;;;;5028437;28;20045;-72
2021/06/18 03:59:42;;;;;;;21.80;11.88;;;20.60;99.90;;;;;;5006409;28;20397;-72
2021/06/18 04:02:10;;;;;;;24.75;12.75;;;20.50;99.90;;;;;;5026369;28;20029;-71
2021/06/18 04:04:37;;;;;;;19.27;11.52;;;20.40;99.90;;;;;;5027405;28;20099;-71
2021/06/18 04:07:06;;;;;;;20.38;12.07;;;20.40;99.90;;;;;;5028291;28;20033;-71
2021/06/18 04:09:31;;;;;;;25.13;13.23;;;20.30;99.90;;;;;;5027284;28;20532;-72
2021/06/18 04:12:02;;;;;;;24.38;13.48;;;20.20;99.90;;;;;;5027797;28;20026;-71
2021/06/18 04:14:28;;;;;;;22.85;14.27;;;20.20;99.90;;;;;;5027730;28;20504;-73
2021/06/18 04:16:54;;;;;;;26.17;15.63;;;20.10;99.90;;;;;;5027959;28;20060;-72
2021/06/18 04:19:20;;;;;;;28.08;15.48;;;20.10;99.90;;;;;;5027682;28;20068;-71
2021/06/18 04:21:46;;;;;;;30.60;15.73;;;20.00;99.90;;;;;;5026430;28;20648;-72
2021/06/18 04:24:13;;;;;;;27.15;15.75;;;20.00;99.90;;;;;;5010008;28;20080;-73
2021/06/18 04:26:40;;;;;;;26.17;14.82;;;20.00;99.90;;;;;;5023045;28;20030;-69
2021/06/18 04:29:06;;;;;;;27.00;16.05;;;19.90;99.90;;;;;;5027719;28;20026;-73
2021/06/18 04:31:31;;;;;;;28.00;15.18;;;19.90;99.90;;;;;;5026195;28;20044;-71
2021/06/18 04:33:57;;;;;;;28.42;16.77;;;19.90;99.90;;;;;;5028209;28;20037;-73
2021/06/18 04:36:22;;;;;;;27.52;15.63;;;19.90;99.90;;;;;;5027891;28;20045;-73
2021/06/18 04:38:48;;;;;;;32.45;17.45;;;19.90;99.90;;;;;;5026410;28;20478;-72
2021/06/18 04:41:14;;;;;;;32.28;16.63;;;19.90;99.90;;;;;;5026634;28;20083;-72
2021/06/18 04:43:40;;;;;;;30.77;16.48;;;19.90;99.90;;;;;;5027094;28;20409;-72
2021/06/18 04:46:05;;;;;;;27.58;16.27;;;19.90;99.90;;;;;;5027577;28;20480;-72
2021/06/18 04:48:31;;;;;;;27.85;16.38;;;19.80;99.90;;;;;;5026064;28;20176;-72
2021/06/18 04:50:57;;;;;;;30.23;17.15;;;19.80;99.90;;;;;;5027417;28;20037;-69
2021/06/18 04:53:23;;;;;;;32.08;17.60;;;19.80;99.90;;;;;;5026748;28;20482;-72
2021/06/18 04:55:48;;;;;;;32.95;17.20;;;19.80;99.90;;;;;;5026733;28;20493;-72
2021/06/18 04:58:14;;;;;;;33.55;17.70;;;19.80;99.90;;;;;;5027267;28;20393;-70
2021/06/18 05:00:40;;;;;;;30.45;17.42;;;19.80;99.90;;;;;;5026638;28;20033;-72
2021/06/18 05:03:06;;;;;;;31.05;16.77;;;19.70;99.90;;;;;;5010086;28;20026;-72
2021/06/18 05:05:32;;;;;;;31.73;18.08;;;19.60;99.90;;;;;;5032171;28;20484;-72
2021/06/18 05:07:57;;;;;;;37.95;19.17;;;19.60;99.90;;;;;;5034320;28;20037;-72
2021/06/18 05:10:24;;;;;;;34.88;19.70;;;19.60;99.90;;;;;;5026983;28;20042;-72
2021/06/18 05:12:50;;;;;;;34.65;19.60;;;19.60;99.90;;;;;;5025526;28;20037;-73
2021/06/18 05:15:16;;;;;;;33.42;19.10;;;19.70;99.90;;;;;;5026718;28;20037;-72
2021/06/18 05:17:42;;;;;;;30.48;18.02;;;19.60;99.90;;;;;;5026021;28;20490;-72
2021/06/18 05:20:08;;;;;;;30.13;17.00;;;19.70;99.90;;;;;;5026889;28;20036;-71
2021/06/18 05:22:34;;;;;;;33.05;15.77;;;19.60;99.90;;;;;;5025513;28;20033;-71
2021/06/18 05:25:00;;;;;;;28.13;15.82;;;19.60;99.90;;;;;;5026224;28;20104;-71
2021/06/18 05:27:27;;;;;;;29.52;16.65;;;19.60;99.90;;;;;;5026415;28;20141;-72
2021/06/18 05:29:52;;;;;;;26.00;14.95;;;19.70;99.90;;;;;;5007921;28;20057;-70
2021/06/18 05:32:18;;;;;;;25.00;14.68;;;19.70;99.90;;;;;;5026262;28;20045;-71
2021/06/18 05:34:44;;;;;;;22.02;13.15;;;19.80;99.90;;;;;;5025831;28;20029;-72
2021/06/18 05:37:10;;;;;;;27.33;14.70;;;19.90;99.90;;;;;;5026580;28;20029;-71
2021/06/18 05:39:36;;;;;;;21.92;13.93;;;20.00;99.90;;;;;;5025837;28;20021;-71
2021/06/18 05:42:02;;;;;;;22.63;13.65;;;20.10;99.90;;;;;;5006818;28;20048;-70
2021/06/18 05:44:27;;;;;;;24.85;14.65;;;20.20;99.90;;;;;;5025882;28;20033;-71
2021/06/18 05:46:53;;;;;;;21.00;13.52;;;20.30;99.90;;;;;;5025791;28;20033;-71
2021/06/18 05:49:18;;;;;;;23.92;15.18;;;20.40;99.90;;;;;;5026191;28;20072;-71
2021/06/18 05:51:44;;;;;;;23.65;14.13;;;20.40;99.90;;;;;;5024619;28;20121;-70
2021/06/18 05:54:11;;;;;;;21.58;14.13;;;20.40;99.90;;;;;;5026413;28;20076;-71
2021/06/18 05:56:36;;;;;;;25.23;15.05;;;20.50;99.90;;;;;;5008214;28;20124;-71
2021/06/18 05:59:02;;;;;;;24.85;14.27;;;20.60;99.90;;;;;;5021979;28;20093;-71
2021/06/18 06:01:28;;;;;;;27.55;14.02;;;20.60;99.90;;;;;;5025215;28;20033;-71
2021/06/18 06:03:54;;;;;;;25.00;14.07;;;20.60;99.90;;;;;;5006134;28;20410;-70
2021/06/18 06:06:21;;;;;;;25.88;14.60;;;20.60;99.90;;;;;;5025561;28;20055;-71
2021/06/18 06:08:47;;;;;;;25.50;15.13;;;20.60;99.90;;;;;;5024947;28;20079;-71
2021/06/18 06:11:13;;;;;;;21.13;13.50;;;20.60;99.90;;;;;;4997882;28;20029;-71
2021/06/18 06:13:39;;;;;;;20.17;12.32;;;20.70;99.90;;;;;;5025316;28;20033;-72
2021/06/18 06:16:05;;;;;;;18.52;12.60;;;20.70;99.90;;;;;;5007333;28;20040;-71
2021/06/18 06:18:30;;;;;;;22.42;13.50;;;20.70;99.90;;;;;;5025736;28;20095;-71
2021/06/18 06:20:56;;;;;;;20.83;12.27;;;20.60;99.90;;;;;;5025046;28;20394;-72
2021/06/18 06:23:22;;;;;;;19.25;12.02;;;20.60;99.90;;;;;;5025767;28;20091;-71
2021/06/18 06:25:47;;;;;;;17.33;10.10;;;20.60;99.90;;;;;;5025789;28;20034;-72
2021/06/18 06:28:13;;;;;;;18.45;10.88;;;20.70;99.90;;;;;;5013106;28;20064;-71
2021/06/18 06:30:39;;;;;;;18.00;10.07;;;20.60;99.90;;;;;;5015205;28;20041;-72
2021/06/18 06:33:05;;;;;;;13.73;7.90;;;20.60;99.90;;;;;;5000661;28;20034;-72
2021/06/18 06:35:30;;;;;;;13.40;7.68;;;20.70;99.90;;;;;;5018640;28;20087;-71
2021/06/18 06:37:56;;;;;;;12.00;6.70;;;20.70;99.90;;;;;;5004155;28;20041;-73
2021/06/18 06:40:23;;;;;;;12.88;7.18;;;20.70;99.90;;;;;;5039292;28;20034;-72
2021/06/18 06:42:50;;;;;;;12.23;6.13;;;20.70;99.90;;;;;;5005913;28;20069;-71
2021/06/18 06:45:16;;;;;;;12.65;6.90;;;20.80;99.90;;;;;;5022996;28;20033;-72
2021/06/18 06:47:41;;;;;;;12.63;7.15;;;20.80;99.90;;;;;;5022404;28;20030;-72
2021/06/18 06:50:09;;;;;;;13.65;7.57;;;20.80;99.90;;;;;;5021966;28;20122;-72
2021/06/18 06:52:35;;;;;;;11.55;6.72;;;20.90;99.90;;;;;;5022304;28;20044;-72
2021/06/18 06:55:01;;;;;;;11.73;7.35;;;21.00;99.90;;;;;;5024830;28;20677;-69
2021/06/18 06:57:26;;;;;;;11.00;6.13;;;21.00;99.90;;;;;;5027172;28;20045;-71
2021/06/18 06:59:52;;;;;;;11.02;6.03;;;21.00;99.90;;;;;;5025311;28;20104;-73
2021/06/18 07:02:18;;;;;;;11.70;6.32;;;21.00;99.90;;;;;;5025846;28;20166;-73
2021/06/18 07:04:44;;;;;;;13.70;6.07;;;21.10;99.90;;;;;;5025988;28;20037;-72
2021/06/18 07:07:10;;;;;;;11.73;6.30;;;21.20;99.90;;;;;;5026025;28;20045;-72
2021/06/18 07:09:39;;;;;;;12.60;6.00;;;21.30;99.90;;;;;;5025873;28;20128;-72
2021/06/18 07:12:09;;;;;;;10.68;5.80;;;21.40;99.90;;;;;;5025147;28;20030;-74
2021/06/18 07:14:41;;;;;;;9.68;5.88;;;21.40;99.90;;;;;;5025737;28;20038;-73
2021/06/18 07:17:08;;;;;;;8.88;4.65;;;21.40;99.90;;;;;;5025725;28;20034;-72
2021/06/18 07:19:33;;;;;;;8.27;4.68;;;21.40;99.90;;;;;;5025802;28;20041;-73
2021/06/18 07:22:00;;;;;;;9.80;5.13;;;21.40;99.90;;;;;;5007749;28;20034;-72
2021/06/18 07:24:27;;;;;;;6.72;4.20;;;21.40;99.90;;;;;;5025514;28;20135;-72
2021/06/18 07:26:52;;;;;;;9.93;5.65;;;21.30;99.90;;;;;;5025103;28;20037;-72
2021/06/18 07:29:18;;;;;;;13.68;5.88;;;21.30;99.90;;;;;;5021127;28;20120;-73
2021/06/18 07:31:44;;;;;;;10.02;5.25;;;21.20;99.90;;;;;;5025232;28;20171;-72
2021/06/18 07:34:10;;;;;;;7.88;4.43;;;21.20;99.90;;;;;;5025786;28;20037;-72
2021/06/18 07:36:36;;;;;;;8.70;4.60;;;21.20;99.90;;;;;;5026595;28;20025;-73
2021/06/18 07:39:03;;;;;;;9.27;4.32;;;21.20;99.90;;;;;;5027280;28;20048;-73
2021/06/18 07:41:30;;;;;;;8.27;4.72;;;21.20;99.90;;;;;;5027192;28;20033;-73
2021/06/18 07:43:55;;;;;;;8.55;5.22;;;21.20;99.90;;;;;;5028755;28;20041;-74
2021/06/18 07:46:23;;;;;;;9.30;6.07;;;21.10;99.90;;;;;;5026116;28;20033;-74
2021/06/18 07:48:49;;;;;;;9.95;6.32;;;20.90;99.90;;;;;;5028406;28;20036;-74
2021/06/18 07:51:14;;;;;;;10.10;6.30;;;20.70;99.90;;;;;;5027599;28;20034;-73
2021/06/18 07:53:40;;;;;;;13.38;7.10;;;20.60;99.90;;;;;;5028559;28;20026;-73
2021/06/18 07:56:07;;;;;;;13.85;7.45;;;20.40;99.90;;;;;;5028894;28;20390;-73
2021/06/18 07:58:33;;;;;;;15.45;8.00;;;20.30;99.90;;;;;;5027621;28;20033;-73
2021/06/18 08:00:58;;;;;;;12.55;7.80;;;20.30;99.90;;;;;;5027237;28;20382;-72
2021/06/18 08:03:24;;;;;;;12.48;8.75;;;20.20;99.90;;;;;;5027701;28;20040;-72
2021/06/18 08:05:49;;;;;;;12.27;8.35;;;20.20;99.90;;;;;;5026977;28;20045;-73
2021/06/18 08:08:15;;;;;;;12.05;8.32;;;20.20;99.90;;;;;;5027695;28;20040;-73
2021/06/18 08:10:41;;;;;;;13.68;8.60;;;20.20;99.90;;;;;;5025176;28;20029;-73
2021/06/18 08:13:06;;;;;;;14.38;7.85;;;20.20;99.90;;;;;;5012216;28;20030;-73
2021/06/18 08:15:32;;;;;;;14.23;8.00;;;20.20;99.90;;;;;;5025536;28;20490;-73
2021/06/18 08:17:58;;;;;;;11.85;7.65;;;20.30;99.90;;;;;;5025862;28;20143;-73
2021/06/18 08:20:25;;;;;;;13.88;7.28;;;20.40;99.90;;;;;;5025447;28;20437;-74
2021/06/18 08:22:53;;;;;;;10.55;7.32;;;20.30;99.90;;;;;;5008209;28;20034;-74
2021/06/18 08:25:19;;;;;;;16.45;7.65;;;20.40;99.90;;;;;;5028059;28;20038;-74
2021/06/18 08:27:45;;;;;;;10.30;7.20;;;20.50;99.90;;;;;;5030934;28;20033;-73
2021/06/18 08:30:11;;;;;;;11.90;7.18;;;20.50;99.90;;;;;;5029810;28;20415;-73
2021/06/18 08:32:36;;;;;;;10.52;7.53;;;20.50;99.90;;;;;;5034173;28;21141;-74
2021/06/18 08:35:02;;;;;;;10.45;6.65;;;20.60;99.90;;;;;;5041734;28;20049;-72
2021/06/18 08:37:28;;;;;;;11.32;6.57;;;20.70;99.90;;;;;;5027850;28;20045;-73
2021/06/18 08:39:54;;;;;;;9.65;6.28;;;20.90;99.90;;;;;;5028206;28;20030;-73
2021/06/18 08:42:19;;;;;;;12.25;6.35;;;21.00;99.90;;;;;;5026597;28;20041;-73
2021/06/18 08:44:46;;;;;;;8.68;5.93;;;21.10;99.90;;;;;;5027923;28;20037;-74
2021/06/18 08:47:15;;;;;;;11.30;5.97;;;21.30;99.90;;;;;;5026116;28;20760;-74
2021/06/18 08:49:41;;;;;;;12.55;5.93;;;21.40;99.90;;;;;;5026847;28;20033;-72
2021/06/18 08:52:07;;;;;;;11.75;6.10;;;21.60;99.90;;;;;;5027241;28;20045;-73
2021/06/18 08:54:42;;;;;;;7.25;5.10;;;21.90;99.90;;;;;;5027119;28;20112;-73
2021/06/18 08:57:10;;;;;;;7.65;4.95;;;22.80;99.90;;;;;;5027797;28;20137;-73
2021/06/18 08:59:36;;;;;;;10.32;5.68;;;23.60;99.90;;;;;;5026843;28;20482;-73
2021/06/18 09:02:02;;;;;;;9.70;5.20;;;24.20;99.90;;;;;;5025625;28;20072;-73
2021/06/18 09:04:27;;;;;;;6.97;4.22;;;25.00;99.90;;;;;;5008966;28;20409;-73
2021/06/18 09:06:58;;;;;;;6.18;4.22;;;25.60;99.90;;;;;;5027586;28;20030;-73
2021/06/18 09:09:28;;;;;;;7.95;4.30;;;26.10;99.90;;;;;;5023004;28;20043;-75
2021/06/18 09:11:58;;;;;;;5.45;3.45;;;26.50;99.90;;;;;;5023192;28;20128;-74
2021/06/18 09:14:35;;;;;;;8.00;4.70;;;26.80;99.90;;;;;;5023642;28;20060;-73
2021/06/18 09:17:27;;;;;;;5.68;3.03;;;26.90;99.90;;;;;;5024030;28;20040;-74
2021/06/18 09:19:55;;;;;;;8.77;3.50;;;26.80;99.90;;;;;;5026698;28;20109;-73
2021/06/18 09:22:22;;;;;;;4.50;2.70;;;26.90;99.90;;;;;;5004275;28;20040;-74
2021/06/18 09:25:00;;;;;;;5.63;2.90;;;27.20;99.90;;;;;;5027049;28;20438;-73
2021/06/18 09:27:33;;;;;;;5.18;2.55;;;27.50;99.90;;;;;;5011595;28;20034;-74
2021/06/18 09:30:31;;;;;;;3.90;2.25;;;27.50;99.90;;;;;;5026365;28;20034;-73
2021/06/18 09:33:16;;;;;;;5.63;2.22;;;27.60;99.90;;;;;;5015375;28;20034;-73
2021/06/18 09:36:08;;;;;;;3.95;2.25;;;27.40;99.90;;;;;;5026182;28;20061;-74
2021/06/18 09:38:43;;;;;;;4.47;1.90;;;27.50;99.90;;;;;;5023870;28;20035;-72
2021/06/18 09:41:28;;;;;;;6.47;2.00;;;27.40;99.90;;;;;;5008068;28;20478;-72
2021/06/18 09:44:18;;;;;;;4.03;1.60;;;27.50;99.90;;;;;;5004574;28;20557;-74
2021/06/18 09:46:55;;;;;;;2.42;1.85;;;27.50;99.90;;;;;;4992741;28;20042;-74
2021/06/18 09:49:37;;;;;;;3.90;1.55;;;27.40;99.90;;;;;;5018131;28;20030;-74
2021/06/18 09:52:11;;;;;;;2.58;1.50;;;27.50;99.90;;;;;;5023649;28;20037;-74
2021/06/18 09:54:41;;;;;;;4.63;1.90;;;27.60;99.90;;;;;;5026516;28;20635;-73
2021/06/18 09:57:11;;;;;;;3.38;1.60;;;27.70;99.90;;;;;;5026006;28;20021;-74
2021/06/18 10:00:01;;;;;;;3.20;1.60;;;27.60;99.90;;;;;;5026394;28;20033;-73
2021/06/18 10:02:49;;;;;;;3.70;1.80;;;27.80;99.90;;;;;;5022135;28;20033;-75
2021/06/18 10:05:26;;;;;;;5.90;2.78;;;27.80;99.90;;;;;;5025124;28;20041;-73
2021/06/18 10:07:54;;;;;;;7.55;2.55;;;27.80;99.90;;;;;;5022772;28;20034;-73
2021/06/18 10:10:28;;;;;;;3.60;2.20;;;27.70;99.90;;;;;;5021878;28;20119;-74
2021/06/18 10:12:54;;;;;;;4.63;2.42;;;27.80;99.90;;;;;;5022122;28;20026;-73
2021/06/18 10:15:22;;;;;;;5.50;3.22;;;28.00;99.90;;;;;;5025516;28;20504;-74
2021/06/18 10:17:50;;;;;;;5.63;2.58;;;28.10;99.90;;;;;;5021926;28;20512;-73
2021/06/18 10:20:18;;;;;;;4.50;2.20;;;28.10;99.90;;;;;;5024787;28;20057;-74
2021/06/18 10:22:51;;;;;;;4.57;3.03;;;28.20;99.90;;;;;;5007994;28;20036;-74
2021/06/18 10:25:30;;;;;;;3.83;3.03;;;28.30;99.90;;;;;;5021387;28;20466;-71
2021/06/18 10:28:01;;;;;;;3.75;2.70;;;28.40;99.90;;;;;;5025755;28;20034;-71
2021/06/18 10:30:34;;;;;;;5.22;2.35;;;28.20;99.90;;;;;;5028232;28;20034;-72
2021/06/18 10:33:19;;;;;;;5.75;3.22;;;28.20;99.90;;;;;;5030133;28;20719;-71
2021/06/18 10:36:06;;;;;;;7.82;2.83;;;28.20;99.90;;;;;;5029282;28;20045;-73
2021/06/18 10:38:32;;;;;;;5.35;2.67;;;28.30;99.90;;;;;;5008550;28;20044;-74
2021/06/18 10:41:18;;;;;;;4.80;3.00;;;28.40;99.90;;;;;;5029429;28;20405;-73
2021/06/18 10:43:49;;;;;;;5.15;2.67;;;28.50;99.90;;;;;;5018516;28;20053;-70
2021/06/18 10:46:36;;;;;;;7.25;3.63;;;28.50;99.90;;;;;;5011324;28;20045;-73
2021/06/18 10:49:13;;;;;;;5.30;3.60;;;28.60;99.90;;;;;;5027649;28;20033;-73
2021/06/18 10:51:42;;;;;;;5.43;3.63;;;28.50;99.90;;;;;;5028897;28;20038;-74
2021/06/18 10:54:33;;;;;;;9.32;4.32;;;28.40;99.90;;;;;;5029442;28;20033;-72
2021/06/18 10:57:03;;;;;;;8.13;5.22;;;28.30;99.90;;;;;;5027050;28;20046;-73
2021/06/18 10:59:48;;;;;;;8.95;5.45;;;28.30;99.90;;;;;;5029287;28;20041;-74
2021/06/18 11:02:26;;;;;;;13.50;5.72;;;28.30;99.90;;;;;;5028917;28;20065;-73
2021/06/18 11:05:00;;;;;;;8.27;6.60;;;28.40;99.90;;;;;;5025620;28;20060;-73
2021/06/18 11:07:27;;;;;;;14.57;8.07;;;28.40;99.90;;;;;;5029362;28;20037;-73
2021/06/18 11:10:00;;;;;;;10.07;6.65;;;28.40;99.90;;;;;;5028378;28;20026;-73
2021/06/18 11:12:26;;;;;;;11.40;7.35;;;28.50;99.90;;;;;;5010826;28;20045;-73
2021/06/18 11:14:57;;;;;;;12.45;7.80;;;28.50;99.90;;;;;;5029088;28;20038;-73
2021/06/18 11:17:40;;;;;;;11.55;7.63;;;28.70;99.90;;;;;;5028653;28;20043;-73
2021/06/18 11:20:11;;;;;;;14.57;8.07;;;28.90;99.90;;;;;;5028470;28;20116;-73
2021/06/18 11:22:53;;;;;;;14.52;8.35;;;29.00;99.90;;;;;;5027404;28;20037;-72
2021/06/18 11:25:40;;;;;;;18.55;9.10;;;28.90;99.90;;;;;;5025236;28;20046;-73
2021/06/18 11:28:21;;;;;;;17.73;9.52;;;29.00;99.90;;;;;;5028104;28;20116;-72
2021/06/18 11:30:59;;;;;;;16.05;9.07;;;29.10;99.90;;;;;;5024955;28;20029;-73
2021/06/18 11:33:49;;;;;;;16.02;10.25;;;29.10;99.90;;;;;;5025794;28;20053;-73
2021/06/18 11:36:21;;;;;;;13.88;9.80;;;29.10;99.90;;;;;;5024496;28;20048;-73
2021/06/18 11:38:57;;;;;;;17.17;10.90;;;28.90;99.90;;;;;;5026851;28;20041;-74
2021/06/18 11:41:29;;;;;;;20.25;10.80;;;28.80;99.90;;;;;;5025813;28;20084;-72
2021/06/18 11:43:57;;;;;;;14.88;10.85;;;28.70;99.90;;;;;;5028318;28;20032;-74
2021/06/18 11:46:25;;;;;;;18.52;11.32;;;28.70;99.90;;;;;;5026407;28;20041;-71
2021/06/18 11:48:54;;;;;;;17.55;12.07;;;28.70;99.90;;;;;;5027771;28;20032;-71
2021/06/18 11:51:24;;;;;;;15.73;11.20;;;28.70;99.90;;;;;;5027805;28;20064;-71
2021/06/18 11:53:50;;;;;;;17.85;10.40;;;28.70;99.90;;;;;;5028602;28;20033;-71
2021/06/18 11:56:16;;;;;;;16.20;10.05;;;28.80;99.90;;;;;;5030238;28;20100;-71
2021/06/18 11:58:46;;;;;;;13.73;9.95;;;29.10;99.90;;;;;;5030208;28;20124;-71
2021/06/18 12:01:24;;;;;;;12.48;7.50;;;29.10;99.90;;;;;;5015061;28;20117;-71
2021/06/18 12:03:52;;;;;;;13.60;7.47;;;29.20;99.90;;;;;;5011582;28;20029;-73
2021/06/18 12:06:39;;;;;;;10.05;7.07;;;29.30;99.90;;;;;;5027968;28;20041;-73
2021/06/18 12:09:06;;;;;;;17.45;9.07;;;29.40;99.90;;;;;;5028026;28;20033;-72
2021/06/18 12:11:35;;;;;;;17.58;8.82;;;29.60;98.70;;;;;;5028033;28;20141;-74
2021/06/18 12:14:01;;;;;;;10.15;7.82;;;29.90;99.20;;;;;;5027721;28;20022;-73
2021/06/18 12:16:28;;;;;;;16.95;9.55;;;29.90;99.90;;;;;;5009382;28;20069;-73
2021/06/18 12:18:54;;;;;;;15.52;6.47;;;30.10;98.60;;;;;;5010687;28;20029;-72
2021/06/18 12:21:24;;;;;;;18.25;9.43;;;30.30;99.60;;;;;;5009353;28;20575;-72
2021/06/18 12:24:03;;;;;;;15.73;9.82;;;30.30;97.70;;;;;;5028012;28;20481;-72
2021/06/18 12:26:29;;;;;;;14.75;8.40;;;30.20;98.10;;;;;;5028220;28;20520;-73
2021/06/18 12:28:55;;;;;;;15.40;8.88;;;30.20;99.10;;;;;;5011568;28;20032;-73
2021/06/18 12:31:20;;;;;;;16.48;8.55;;;30.10;97.80;;;;;;5028672;28;20034;-73
2021/06/18 12:33:47;;;;;;;15.18;8.15;;;30.00;98.20;;;;;;5029105;28;20026;-72
2021/06/18 12:36:20;;;;;;;16.23;9.90;;;30.20;98.40;;;;;;5027523;28;20459;-75
2021/06/18 12:38:47;;;;;;;13.50;7.75;;;30.50;98.30;;;;;;5025693;28;20072;-74
2021/06/18 12:41:26;;;;;;;10.73;7.50;;;30.50;96.90;;;;;;5026861;28;20038;-72
2021/06/18 12:44:06;;;;;;;12.57;7.82;;;30.40;97.00;;;;;;5024382;28;20501;-71
2021/06/18 12:46:32;;;;;;;10.82;6.50;;;30.30;96.30;;;;;;5027463;28;20485;-74
2021/06/18 12:49:11;;;;;;;10.60;6.43;;;30.10;96.40;;;;;;5027217;28;20030;-73